Time;durP1;ratioP1;P1;durP2;ratioP2;P2;SDS_P1;SDS_P2;PMS_P1;PMS_P2;Temp;Humidity;BMP_temperature;BMP_pressure;BME280_temperature;BME280_humidity;BME280_pressure;Samples;Min_cycle;Max_cycle;Signal;HPM_P1;HPM_P2
2022/10/27 00:00:36;;;;;;;11.18;4.95;;;13.60;99.90;;;;;;4882542;29;20056;-73
2022/10/27 00:03:02;;;;;;;6.60;3.83;;;13.50;99.90;;;;;;4881260;29;20079;-73
2022/10/27 00:05:27;;;;;;;5.00;3.38;;;13.50;99.90;;;;;;4881141;29;20053;-73
2022/10/27 00:07:53;;;;;;;5.72;3.28;;;13.50;99.90;;;;;;4882219;29;20068;-73
2022/10/27 00:10:19;;;;;;;6.15;3.15;;;13.60;99.90;;;;;;4850362;29;20045;-73
2022/10/27 00:12:45;;;;;;;6.30;3.55;;;13.50;99.90;;;;;;4880908;29;20057;-73
2022/10/27 00:15:11;;;;;;;5.22;3.70;;;13.50;99.90;;;;;;4881241;29;20049;-73
2022/10/27 00:17:37;;;;;;;5.10;3.20;;;13.50;99.90;;;;;;4882148;29;20119;-73
2022/10/27 00:20:03;;;;;;;6.82;3.10;;;13.50;99.90;;;;;;4882001;29;20052;-73
2022/10/27 00:22:29;;;;;;;6.45;3.63;;;13.40;99.90;;;;;;4865317;29;20081;-73
2022/10/27 00:24:55;;;;;;;6.50;3.65;;;13.40;99.90;;;;;;4881794;29;20087;-73
2022/10/27 00:27:20;;;;;;;5.00;3.30;;;13.40;99.90;;;;;;4865382;29;20063;-73
2022/10/27 00:29:46;;;;;;;7.80;3.90;;;13.40;99.90;;;;;;4882105;29;20045;-73
2022/10/27 00:32:11;;;;;;;5.85;3.70;;;13.40;99.90;;;;;;4881605;29;20057;-73
2022/10/27 00:34:37;;;;;;;7.22;3.65;;;13.30;99.90;;;;;;4880814;29;20052;-73
2022/10/27 00:37:03;;;;;;;5.93;4.00;;;13.30;99.90;;;;;;4880494;29;20172;-73
2022/10/27 00:39:29;;;;;;;6.88;4.13;;;13.30;99.90;;;;;;4880252;29;20045;-73
2022/10/27 00:41:54;;;;;;;6.93;4.38;;;13.30;99.90;;;;;;4880242;29;20045;-73
2022/10/27 00:44:29;;;;;;;7.38;4.00;;;13.30;99.90;;;;;;4864397;29;20052;-73
2022/10/27 00:46:55;;;;;;;7.22;3.97;;;13.30;99.90;;;;;;4880560;29;20490;-73
2022/10/27 00:49:26;;;;;;;5.13;3.75;;;13.20;99.90;;;;;;4880211;29;20061;-73
2022/10/27 00:52:18;;;;;;;10.05;4.80;;;13.20;99.90;;;;;;4880563;29;20065;-73
2022/10/27 00:54:44;;;;;;;7.32;4.07;;;13.20;99.90;;;;;;4880051;29;20514;-73
2022/10/27 00:57:10;;;;;;;7.22;4.20;;;13.20;99.90;;;;;;4881369;29;20374;-73
2022/10/27 00:59:37;;;;;;;6.40;4.32;;;13.20;99.90;;;;;;4880103;29;20045;-74
2022/10/27 01:02:05;;;;;;;8.55;4.68;;;13.20;99.90;;;;;;4864174;29;20498;-73
2022/10/27 01:04:46;;;;;;;8.80;4.68;;;13.10;99.90;;;;;;4879871;29;20049;-73
2022/10/27 01:07:15;;;;;;;6.30;4.18;;;13.10;99.90;;;;;;4880072;29;20451;-73
2022/10/27 01:09:42;;;;;;;6.47;4.75;;;13.10;99.90;;;;;;4881073;29;20132;-74
2022/10/27 01:12:07;;;;;;;6.10;4.28;;;13.00;99.90;;;;;;4880588;29;20074;-73
2022/10/27 01:14:33;;;;;;;6.78;4.40;;;13.00;99.90;;;;;;4879713;29;20076;-73
2022/10/27 01:17:37;;;;;;;6.70;5.03;;;13.00;99.90;;;;;;4849219;29;20522;-72
2022/10/27 01:20:24;;;;;;;10.35;4.90;;;12.90;99.90;;;;;;4878579;29;20061;-72
2022/10/27 01:22:55;;;;;;;7.32;4.65;;;12.90;99.90;;;;;;4881014;29;20446;-73
2022/10/27 01:25:35;;;;;;;6.75;4.93;;;12.90;99.90;;;;;;4864382;29;20402;-73
2022/10/27 01:28:31;;;;;;;5.38;4.70;;;12.90;99.90;;;;;;4880551;29;20545;-73
2022/10/27 01:30:56;;;;;;;6.00;4.90;;;12.90;99.90;;;;;;4879579;29;20056;-73
2022/10/27 01:33:34;;;;;;;8.15;4.60;;;12.90;99.90;;;;;;4863957;29;20048;-73
2022/10/27 01:36:09;;;;;;;7.40;5.05;;;12.90;99.90;;;;;;4879352;29;20045;-73
2022/10/27 01:39:06;;;;;;;8.43;4.82;;;12.90;99.90;;;;;;4879292;29;20494;-73
2022/10/27 01:42:05;;;;;;;7.72;5.63;;;12.90;99.90;;;;;;4880460;29;20060;-73
2022/10/27 01:44:35;;;;;;;7.53;5.38;;;12.90;99.90;;;;;;4881577;29;20451;-73
2022/10/27 01:47:02;;;;;;;7.93;4.88;;;12.90;99.90;;;;;;4879680;29;20516;-73
2022/10/27 01:49:35;;;;;;;7.07;4.78;;;12.90;99.90;;;;;;4879222;29;20088;-73
2022/10/27 01:52:48;;;;;;;9.73;5.13;;;12.90;99.90;;;;;;4879456;29;20091;-73
2022/10/27 01:55:19;;;;;;;7.67;4.93;;;12.90;99.90;;;;;;4880178;29;20084;-73
2022/10/27 01:58:01;;;;;;;10.32;4.63;;;12.90;99.90;;;;;;4879451;29;20060;-74
2022/10/27 02:00:31;;;;;;;9.70;5.32;;;12.90;99.90;;;;;;4879106;29;20048;-73
2022/10/27 02:03:05;;;;;;;9.25;6.07;;;12.90;99.90;;;;;;4879085;29;20053;-73
2022/10/27 02:06:08;;;;;;;12.25;6.25;;;13.00;99.90;;;;;;4879911;29;20048;-73
2022/10/27 02:08:49;;;;;;;7.93;5.13;;;13.00;99.90;;;;;;4874642;29;20061;-73
2022/10/27 02:11:15;;;;;;;7.07;5.32;;;13.00;99.90;;;;;;4879978;29;20084;-73
2022/10/27 02:13:44;;;;;;;8.77;5.32;;;13.00;99.90;;;;;;4847055;29;20165;-74
2022/10/27 02:16:21;;;;;;;9.20;5.80;;;13.00;99.90;;;;;;4880016;29;20053;-73
2022/10/27 02:19:13;;;;;;;11.18;5.97;;;13.00;99.90;;;;;;4880199;29;20049;-73
2022/10/27 02:21:42;;;;;;;8.07;5.80;;;13.10;99.90;;;;;;4878885;29;20060;-73
2022/10/27 02:24:08;;;;;;;9.85;5.70;;;13.10;99.90;;;;;;4879650;29;20060;-73
2022/10/27 02:27:05;;;;;;;10.95;6.05;;;13.10;99.90;;;;;;4878364;29;20059;-73
2022/10/27 02:29:42;;;;;;;8.82;5.40;;;13.10;99.90;;;;;;4878885;29;20387;-73
2022/10/27 02:32:15;;;;;;;8.55;5.43;;;13.10;99.90;;;;;;4878775;29;20088;-73
2022/10/27 02:34:42;;;;;;;;;;;13.10;99.90;;;;;;4879054;29;20056;-73
2022/10/27 02:37:09;;;;;;;10.27;5.95;;;13.10;99.90;;;;;;4878907;29;20014;-73
2022/10/27 02:39:35;;;;;;;7.13;5.78;;;13.10;99.90;;;;;;4879753;29;20059;-73
2022/10/27 02:42:03;;;;;;;11.57;5.63;;;13.10;99.90;;;;;;4879643;29;20085;-72
2022/10/27 02:44:29;;;;;;;8.30;5.63;;;13.10;99.90;;;;;;4862779;29;20057;-73
2022/10/27 02:46:54;;;;;;;9.73;5.78;;;13.10;99.90;;;;;;4878479;29;20063;-73
2022/10/27 02:49:20;;;;;;;9.23;5.72;;;13.10;99.90;;;;;;4878488;29;20053;-73
2022/10/27 02:51:45;;;;;;;6.30;5.25;;;13.10;99.90;;;;;;4878303;29;20052;-73
2022/10/27 02:54:11;;;;;;;8.52;5.65;;;13.10;99.90;;;;;;4878728;29;20064;-73
2022/10/27 02:56:37;;;;;;;10.13;6.00;;;13.10;99.90;;;;;;4878729;29;20073;-73
2022/10/27 02:59:02;;;;;;;9.73;5.97;;;13.10;99.90;;;;;;4878429;29;20045;-73
2022/10/27 03:01:28;;;;;;;8.55;5.70;;;13.10;99.90;;;;;;4878331;29;20132;-73
2022/10/27 03:03:54;;;;;;;7.88;5.60;;;13.10;99.90;;;;;;4879120;29;20114;-73
2022/10/27 03:06:19;;;;;;;8.90;4.72;;;13.10;99.90;;;;;;4847692;29;20045;-73
2022/10/27 03:08:45;;;;;;;8.13;5.25;;;13.10;99.90;;;;;;4878223;29;20051;-73
2022/10/27 03:11:11;;;;;;;8.80;5.40;;;13.10;99.90;;;;;;4878358;29;20135;-73
2022/10/27 03:13:36;;;;;;;7.85;4.97;;;13.00;99.90;;;;;;4877358;29;20049;-73
2022/10/27 03:16:02;;;;;;;12.80;6.15;;;13.00;99.90;;;;;;4878201;29;20057;-73
2022/10/27 03:18:28;;;;;;;7.68;5.57;;;12.90;99.90;;;;;;4878039;29;20136;-74
2022/10/27 03:20:53;;;;;;;7.50;5.22;;;13.00;99.90;;;;;;4878546;29;20049;-74
2022/10/27 03:23:19;;;;;;;8.75;5.70;;;12.90;99.90;;;;;;4878384;29;20048;-72
2022/10/27 03:25:46;;;;;;;8.10;5.07;;;12.90;99.90;;;;;;4881475;29;20498;-73
2022/10/27 03:28:11;;;;;;;7.22;5.40;;;12.90;99.90;;;;;;4866293;29;20140;-73
2022/10/27 03:30:38;;;;;;;10.15;5.53;;;12.80;99.90;;;;;;4882809;29;20505;-74
2022/10/27 03:33:03;;;;;;;9.50;6.10;;;12.70;99.90;;;;;;4882677;29;20101;-73
2022/10/27 03:35:29;;;;;;;8.55;5.50;;;12.80;99.90;;;;;;4835582;29;20049;-73
2022/10/27 03:37:59;;;;;;;9.25;5.10;;;12.80;99.90;;;;;;4881807;29;20136;-73
2022/10/27 03:40:26;;;;;;;7.45;5.78;;;12.80;99.90;;;;;;4881824;29;20049;-74
2022/10/27 03:42:57;;;;;;;8.95;5.60;;;12.80;99.90;;;;;;4881463;29;20056;-74
2022/10/27 03:45:26;;;;;;;8.77;5.40;;;12.70;99.90;;;;;;4880852;29;20049;-73
2022/10/27 03:48:03;;;;;;;6.82;5.57;;;12.70;99.90;;;;;;4866479;29;20057;-73
2022/10/27 03:50:29;;;;;;;8.02;5.72;;;12.80;99.90;;;;;;4881598;29;20045;-73
2022/10/27 03:52:55;;;;;;;9.02;5.50;;;12.80;99.90;;;;;;4865822;29;20053;-73
2022/10/27 03:55:21;;;;;;;6.85;5.68;;;12.80;99.90;;;;;;4881343;29;20104;-74
2022/10/27 03:57:47;;;;;;;9.18;5.95;;;12.80;99.90;;;;;;4881531;29;20080;-73
2022/10/27 04:00:14;;;;;;;9.20;5.35;;;12.80;99.90;;;;;;4881279;29;20092;-74
2022/10/27 04:02:39;;;;;;;6.00;5.18;;;12.80;99.90;;;;;;4881264;29;20554;-73
2022/10/27 04:05:05;;;;;;;8.75;5.93;;;12.80;99.90;;;;;;4865263;29;20041;-73
2022/10/27 04:07:31;;;;;;;9.38;6.13;;;12.80;99.90;;;;;;4866173;29;20121;-73
2022/10/27 04:09:56;;;;;;;10.88;6.32;;;12.80;99.90;;;;;;4865327;29;20101;-74
2022/10/27 04:12:22;;;;;;;12.52;8.25;;;12.80;99.90;;;;;;4882100;29;20052;-74
2022/10/27 04:14:49;;;;;;;15.90;8.05;;;12.70;99.90;;;;;;4880055;29;20101;-74
2022/10/27 04:17:16;;;;;;;10.38;6.78;;;12.80;99.90;;;;;;4881131;29;20136;-73
2022/10/27 04:19:42;;;;;;;9.50;6.75;;;12.70;99.90;;;;;;4865612;29;20065;-74
2022/10/27 04:22:08;;;;;;;11.35;6.32;;;12.70;99.90;;;;;;4849898;29;20065;-74
2022/10/27 04:24:33;;;;;;;8.73;6.80;;;12.70;99.90;;;;;;4881790;29;20049;-74
2022/10/27 04:26:59;;;;;;;11.45;6.88;;;12.70;99.90;;;;;;4881776;29;20045;-73
2022/10/27 04:29:25;;;;;;;10.93;6.90;;;12.80;99.90;;;;;;4864854;29;20049;-74
2022/10/27 04:31:51;;;;;;;11.35;6.35;;;12.70;99.90;;;;;;4865011;29;20084;-74
2022/10/27 04:34:16;;;;;;;10.95;6.70;;;12.70;99.90;;;;;;4880534;29;20162;-74
2022/10/27 04:36:42;;;;;;;9.93;6.30;;;12.70;99.90;;;;;;4879780;29;20049;-73
2022/10/27 04:39:12;;;;;;;8.75;6.63;;;12.70;99.90;;;;;;4881450;29;20049;-74
2022/10/27 04:41:39;;;;;;;12.50;8.70;;;12.80;99.90;;;;;;4865815;29;20057;-73
2022/10/27 04:44:05;;;;;;;10.98;7.15;;;12.80;99.90;;;;;;4864221;29;20402;-74
2022/10/27 04:46:30;;;;;;;10.23;7.20;;;12.80;99.90;;;;;;4881565;29;20045;-73
2022/10/27 04:48:56;;;;;;;9.45;6.47;;;12.70;99.90;;;;;;4880290;29;20053;-74
2022/10/27 04:51:22;;;;;;;13.73;7.55;;;12.80;99.90;;;;;;4880340;29;20095;-75
2022/10/27 04:53:48;;;;;;;9.82;7.20;;;12.80;99.90;;;;;;4881330;29;20105;-74
2022/10/27 04:56:13;;;;;;;11.68;7.22;;;12.70;99.90;;;;;;4849726;29;20057;-74
2022/10/27 04:58:39;;;;;;;11.57;7.82;;;12.80;99.90;;;;;;4881711;29;20514;-73
2022/10/27 05:01:10;;;;;;;14.05;7.90;;;12.70;99.90;;;;;;4881842;29;20057;-73
2022/10/27 05:03:35;;;;;;;10.75;7.35;;;12.70;99.90;;;;;;4865757;29;20045;-73
2022/10/27 05:06:02;;;;;;;11.25;7.80;;;12.70;99.90;;;;;;4880194;29;20053;-74
2022/10/27 05:08:28;;;;;;;14.68;8.02;;;12.70;99.90;;;;;;4879948;29;20053;-73
2022/10/27 05:10:54;;;;;;;8.57;6.78;;;12.70;99.90;;;;;;4864507;29;20049;-74
2022/10/27 05:13:20;;;;;;;11.57;7.43;;;12.70;99.90;;;;;;4878936;29;20459;-78
2022/10/27 05:15:45;;;;;;;10.18;7.40;;;12.70;99.90;;;;;;4880209;29;20057;-74
2022/10/27 05:18:11;;;;;;;10.45;7.00;;;12.80;99.90;;;;;;4879709;29;20379;-74
2022/10/27 05:20:37;;;;;;;12.00;7.53;;;12.70;99.90;;;;;;4879794;29;20077;-74
2022/10/27 05:23:03;;;;;;;9.88;7.22;;;12.70;99.90;;;;;;4879786;29;20057;-74
2022/10/27 05:25:29;;;;;;;11.38;7.85;;;12.70;99.90;;;;;;4864145;29;20196;-73
2022/10/27 05:28:06;;;;;;;11.75;7.53;;;12.70;99.90;;;;;;4880420;29;20168;-74
2022/10/27 05:30:31;;;;;;;11.65;7.78;;;12.60;99.90;;;;;;4879966;29;20093;-74
2022/10/27 05:32:57;;;;;;;10.00;7.95;;;12.60;99.90;;;;;;4879389;29;20084;-73
2022/10/27 05:35:23;;;;;;;13.50;7.13;;;12.60;99.90;;;;;;4879529;29;20146;-74
2022/10/27 05:37:49;;;;;;;11.38;8.02;;;12.60;99.90;;;;;;4879533;29;20051;-74
2022/10/27 05:40:15;;;;;;;10.88;7.45;;;12.60;99.90;;;;;;4880203;29;20126;-74
2022/10/27 05:42:49;;;;;;;11.20;7.57;;;12.60;99.90;;;;;;4864011;29;20049;-74
2022/10/27 05:45:15;;;;;;;11.13;7.72;;;12.60;99.90;;;;;;4878918;29;20053;-74
2022/10/27 05:47:40;;;;;;;13.40;7.68;;;12.60;99.90;;;;;;4878862;29;20077;-74
2022/10/27 05:50:06;;;;;;;11.20;7.68;;;12.50;99.90;;;;;;4880111;29;20136;-74
2022/10/27 05:52:32;;;;;;;11.02;7.60;;;12.60;99.90;;;;;;4848425;29;20064;-73
2022/10/27 05:54:58;;;;;;;12.05;8.38;;;12.50;99.90;;;;;;4863711;29;20064;-74
2022/10/27 05:57:23;;;;;;;11.27;7.32;;;12.50;99.90;;;;;;4879111;29;20144;-74
2022/10/27 05:59:49;;;;;;;10.77;7.47;;;12.50;99.90;;;;;;4880616;29;20049;-73
2022/10/27 06:02:15;;;;;;;15.13;7.97;;;12.60;99.90;;;;;;4863544;29;20089;-73
2022/10/27 06:04:40;;;;;;;11.88;7.78;;;12.60;99.90;;;;;;4879178;29;20151;-74
2022/10/27 06:07:06;;;;;;;10.40;7.65;;;12.60;99.90;;;;;;4878970;29;20052;-73
2022/10/27 06:09:32;;;;;;;10.50;6.78;;;12.60;99.90;;;;;;4863162;29;20447;-74
2022/10/27 06:11:58;;;;;;;12.05;7.30;;;12.50;99.90;;;;;;4879067;29;20072;-73
2022/10/27 06:14:23;;;;;;;9.13;6.85;;;12.50;99.90;;;;;;4879176;29;20061;-74
2022/10/27 06:16:49;;;;;;;11.75;7.60;;;12.60;99.90;;;;;;4863617;29;20045;-74
2022/10/27 06:19:14;;;;;;;10.02;7.82;;;12.50;99.90;;;;;;4878914;29;20087;-74
2022/10/27 06:21:40;;;;;;;10.45;7.72;;;12.60;99.90;;;;;;4879049;29;20131;-74
2022/10/27 06:24:06;;;;;;;10.70;7.88;;;12.50;99.90;;;;;;4879580;29;20048;-74
2022/10/27 06:26:32;;;;;;;8.43;6.18;;;12.50;99.90;;;;;;4878697;29;20048;-74
2022/10/27 06:28:57;;;;;;;13.23;7.60;;;12.50;99.90;;;;;;4863017;29;20049;-74
2022/10/27 06:31:23;;;;;;;9.27;7.20;;;12.50;99.90;;;;;;4863179;29;20494;-74
2022/10/27 06:33:49;;;;;;;12.00;7.57;;;12.50;99.90;;;;;;4879537;29;20487;-74
2022/10/27 06:36:14;;;;;;;11.30;7.07;;;12.70;99.90;;;;;;4878730;29;20060;-73
2022/10/27 06:38:40;;;;;;;12.13;7.57;;;12.50;99.90;;;;;;4863059;29;20075;-74
2022/10/27 06:41:06;;;;;;;10.93;8.00;;;12.50;99.90;;;;;;4878536;29;20056;-74
2022/10/27 06:43:31;;;;;;;11.40;7.32;;;12.60;99.90;;;;;;4878184;29;20402;-74
2022/10/27 06:45:57;;;;;;;9.90;7.32;;;12.60;99.90;;;;;;4878286;29;20093;-74
2022/10/27 06:48:23;;;;;;;10.07;7.22;;;12.60;99.90;;;;;;4879585;29;20521;-74
2022/10/27 06:50:49;;;;;;;10.30;6.90;;;12.60;99.90;;;;;;4878354;29;20053;-73
2022/10/27 06:53:14;;;;;;;10.43;7.00;;;12.70;99.90;;;;;;4878213;29;20049;-74
2022/10/27 06:55:40;;;;;;;12.35;7.60;;;12.70;99.90;;;;;;4879778;29;20041;-74
2022/10/27 06:58:06;;;;;;;10.60;6.80;;;12.70;99.90;;;;;;4879611;29;20166;-74
2022/10/27 07:00:32;;;;;;;12.52;7.15;;;12.70;99.90;;;;;;4882139;29;20549;-74
2022/10/27 07:02:58;;;;;;;9.43;6.88;;;12.80;99.90;;;;;;4867016;29;20057;-74
2022/10/27 07:05:24;;;;;;;13.10;6.60;;;12.80;99.90;;;;;;4866634;29;20418;-74
2022/10/27 07:07:51;;;;;;;9.95;6.25;;;12.90;99.90;;;;;;4882099;29;20065;-74
2022/10/27 07:10:17;;;;;;;9.23;6.68;;;13.10;99.90;;;;;;4882347;29;20049;-74
2022/10/27 07:12:55;;;;;;;9.90;6.47;;;13.00;99.90;;;;;;4866495;29;20120;-74
2022/10/27 07:15:21;;;;;;;10.88;6.82;;;13.00;99.90;;;;;;4881554;29;20045;-74
2022/10/27 07:17:47;;;;;;;10.90;6.60;;;13.10;99.90;;;;;;4882048;29;20098;-73
2022/10/27 07:20:12;;;;;;;14.15;6.45;;;13.20;99.90;;;;;;4866426;29;20049;-74
2022/10/27 07:22:41;;;;;;;12.25;7.07;;;13.20;99.90;;;;;;4866383;29;20052;-74
2022/10/27 07:25:07;;;;;;;11.68;7.03;;;13.30;99.90;;;;;;4882975;29;20112;-74
2022/10/27 07:27:33;;;;;;;9.48;6.68;;;13.30;99.90;;;;;;4882000;29;20084;-73
2022/10/27 07:29:59;;;;;;;10.93;6.80;;;13.40;99.90;;;;;;4866517;29;20111;-74
2022/10/27 07:32:24;;;;;;;11.88;6.28;;;13.40;99.90;;;;;;4866396;29;20053;-74
2022/10/27 07:34:50;;;;;;;11.25;6.20;;;13.50;99.90;;;;;;4882655;29;20117;-74
2022/10/27 07:37:16;;;;;;;10.00;6.75;;;13.50;99.90;;;;;;4883258;29;20060;-74
2022/10/27 07:39:43;;;;;;;10.35;6.43;;;13.50;99.90;;;;;;4882831;29;20545;-74
2022/10/27 07:42:08;;;;;;;11.13;6.55;;;13.50;99.90;;;;;;4882527;29;20049;-73
2022/10/27 07:44:34;;;;;;;10.75;6.55;;;13.60;99.90;;;;;;4881264;29;20140;-73
2022/10/27 07:47:00;;;;;;;7.95;6.55;;;13.70;99.90;;;;;;4881694;29;20443;-73
2022/10/27 07:49:25;;;;;;;11.85;6.57;;;13.70;99.90;;;;;;4882483;29;20557;-74
2022/10/27 07:51:51;;;;;;;11.52;6.95;;;13.70;99.90;;;;;;4881106;29;20053;-73
2022/10/27 07:54:17;;;;;;;8.73;6.05;;;13.70;99.90;;;;;;4882838;29;20132;-73
2022/10/27 07:56:42;;;;;;;10.52;6.80;;;13.80;99.90;;;;;;4865957;29;20498;-73
2022/10/27 07:59:08;;;;;;;8.95;6.32;;;13.80;99.90;;;;;;4882422;29;20104;-73
2022/10/27 08:01:34;;;;;;;11.88;6.30;;;13.80;99.90;;;;;;4865716;29;20055;-74
2022/10/27 08:03:59;;;;;;;10.05;6.55;;;13.80;99.90;;;;;;4882207;29;20056;-73
2022/10/27 08:06:25;;;;;;;11.57;6.43;;;13.90;99.90;;;;;;4880914;29;20059;-73
2022/10/27 08:08:51;;;;;;;9.65;6.28;;;13.90;99.90;;;;;;4850371;29;20048;-73
2022/10/27 08:11:16;;;;;;;12.20;6.45;;;13.90;99.90;;;;;;4865857;29;20053;-73
2022/10/27 08:13:42;;;;;;;12.23;6.22;;;13.90;99.90;;;;;;4880517;29;20065;-73
2022/10/27 08:16:08;;;;;;;10.77;5.90;;;13.90;99.90;;;;;;4880997;29;20049;-72
2022/10/27 08:18:33;;;;;;;7.43;5.45;;;13.90;99.90;;;;;;4880893;29;20135;-71
2022/10/27 08:20:59;;;;;;;8.50;5.40;;;14.00;99.90;;;;;;4865516;29;20052;-71
2022/10/27 08:23:25;;;;;;;9.95;6.03;;;14.00;99.90;;;;;;4850558;29;20053;-72
2022/10/27 08:25:51;;;;;;;7.70;6.05;;;14.00;99.90;;;;;;4881087;29;20057;-71
2022/10/27 08:28:17;;;;;;;9.00;6.18;;;14.00;99.90;;;;;;4881048;29;20435;-71
2022/10/27 08:30:43;;;;;;;34.40;12.20;;;14.10;99.90;;;;;;4865203;29;20565;-71
2022/10/27 08:33:09;;;;;;;12.10;6.45;;;14.10;99.90;;;;;;4880854;29;20494;-72
2022/10/27 08:35:35;;;;;;;11.10;6.20;;;14.20;99.90;;;;;;4881882;29;20053;-73
2022/10/27 08:38:04;;;;;;;7.60;5.65;;;14.20;99.90;;;;;;4881875;29;20049;-75
2022/10/27 08:40:43;;;;;;;11.85;5.93;;;14.40;99.90;;;;;;4881801;29;20499;-72
2022/10/27 08:43:31;;;;;;;10.30;6.20;;;14.20;99.90;;;;;;4881050;29;20056;-73
2022/10/27 08:46:15;;;;;;;10.65;6.35;;;14.30;99.90;;;;;;4879767;29;20056;-75
2022/10/27 08:48:43;;;;;;;11.93;6.03;;;14.30;99.90;;;;;;4879385;29;20041;-75
2022/10/27 08:51:22;;;;;;;9.70;6.07;;;14.30;99.90;;;;;;4880117;29;20133;-75
2022/10/27 08:53:51;;;;;;;11.02;5.88;;;14.30;99.90;;;;;;4879900;29;20041;-75
2022/10/27 08:56:19;;;;;;;8.70;5.80;;;14.30;99.90;;;;;;4880794;29;20048;-76
2022/10/27 08:58:47;;;;;;;9.50;5.85;;;14.30;99.90;;;;;;4881074;29;20132;-75
2022/10/27 09:01:29;;;;;;;12.05;5.97;;;14.30;99.90;;;;;;4880035;29;20136;-75
2022/10/27 09:04:12;;;;;;;9.65;5.97;;;14.30;99.90;;;;;;4894909;29;20044;-75
2022/10/27 09:07:00;;;;;;;9.98;6.65;;;14.30;99.90;;;;;;4880947;29;20048;-76
2022/10/27 09:09:34;;;;;;;10.73;5.88;;;14.30;99.90;;;;;;4878493;29;20049;-74
2022/10/27 09:12:30;;;;;;;10.55;5.90;;;14.40;99.90;;;;;;4875219;29;20482;-72
2022/10/27 09:15:15;;;;;;;10.25;6.32;;;14.40;99.90;;;;;;4879519;29;20049;-73
2022/10/27 09:17:49;;;;;;;8.77;5.20;;;14.50;99.90;;;;;;4884544;29;20040;-73
2022/10/27 09:20:23;;;;;;;9.20;5.97;;;14.50;99.90;;;;;;4879779;29;20049;-73
2022/10/27 09:22:52;;;;;;;8.60;5.65;;;14.60;99.90;;;;;;4880205;29;20375;-72
2022/10/27 09:25:19;;;;;;;7.25;5.18;;;14.60;99.90;;;;;;4878821;29;20056;-72
2022/10/27 09:27:57;;;;;;;11.43;5.60;;;14.70;99.90;;;;;;4863121;29;20053;-71
2022/10/27 09:30:23;;;;;;;9.57;5.25;;;14.80;99.90;;;;;;4860817;29;20080;-72
2022/10/27 09:32:52;;;;;;;9.15;5.20;;;14.80;99.90;;;;;;4863856;29;20080;-73
2022/10/27 09:35:23;;;;;;;10.65;4.93;;;14.90;99.90;;;;;;4878098;29;20063;-73
2022/10/27 09:37:51;;;;;;;9.77;5.03;;;15.00;99.90;;;;;;4876137;29;20433;-73
2022/10/27 09:40:19;;;;;;;9.70;4.78;;;15.00;99.90;;;;;;4879095;29;20163;-73
2022/10/27 09:42:47;;;;;;;8.60;5.10;;;15.10;99.90;;;;;;4879987;29;20079;-74
2022/10/27 09:45:19;;;;;;;6.45;4.60;;;15.10;99.90;;;;;;4878308;29;20044;-74
2022/10/27 09:47:49;;;;;;;9.45;4.88;;;15.20;99.90;;;;;;4863573;29;20056;-74
2022/10/27 09:50:39;;;;;;;8.07;4.72;;;15.20;99.90;;;;;;4876202;29;20048;-74
2022/10/27 09:53:25;;;;;;;8.27;4.55;;;15.30;99.90;;;;;;4869770;29;20045;-74
2022/10/27 09:55:52;;;;;;;5.55;4.03;;;15.30;99.90;;;;;;4862904;29;20045;-74
2022/10/27 09:58:19;;;;;;;7.25;4.20;;;15.30;99.90;;;;;;4879934;29;20077;-74
2022/10/27 10:00:54;;;;;;;4.90;3.55;;;15.40;99.90;;;;;;4878917;29;20084;-71
2022/10/27 10:03:21;;;;;;;7.97;4.15;;;15.50;99.90;;;;;;4877288;29;20049;-71
2022/10/27 10:06:01;;;;;;;6.75;4.05;;;15.50;99.90;;;;;;4879861;29;20080;-70
2022/10/27 10:08:32;;;;;;;8.45;3.92;;;15.50;99.90;;;;;;4878944;29;20119;-69
2022/10/27 10:10:59;;;;;;;8.23;4.05;;;15.60;99.90;;;;;;4877713;29;20081;-70
2022/10/27 10:13:36;;;;;;;5.70;3.58;;;15.70;99.90;;;;;;4878434;29;20059;-70
2022/10/27 10:16:14;;;;;;;6.32;3.65;;;15.70;99.90;;;;;;4877800;29;20045;-70
2022/10/27 10:18:45;;;;;;;5.38;2.85;;;15.70;99.90;;;;;;4877933;29;20095;-70
2022/10/27 10:21:12;;;;;;;5.32;2.70;;;15.80;99.90;;;;;;4863106;29;20456;-70
2022/10/27 10:23:55;;;;;;;5.18;2.85;;;15.80;99.90;;;;;;4878324;29;20057;-70
2022/10/27 10:26:25;;;;;;;4.78;2.50;;;15.80;99.90;;;;;;4877793;29;20608;-70
2022/10/27 10:28:54;;;;;;;4.10;2.00;;;15.90;99.90;;;;;;4879610;29;20617;-71
2022/10/27 10:31:27;;;;;;;6.03;2.60;;;15.90;99.90;;;;;;4879497;29;20092;-71
2022/10/27 10:34:29;;;;;;;3.25;2.22;;;15.90;99.90;;;;;;4879420;29;20036;-71
2022/10/27 10:36:55;;;;;;;8.60;2.47;;;16.00;99.90;;;;;;4873211;29;20053;-71
2022/10/27 10:39:23;;;;;;;4.32;1.30;;;16.10;99.90;;;;;;4874872;29;20109;-70
2022/10/27 10:42:08;;;;;;;3.85;1.42;;;16.10;99.90;;;;;;4862616;29;20057;-70
2022/10/27 10:44:34;;;;;;;2.53;1.20;;;16.10;99.90;;;;;;4885215;29;20049;-71
2022/10/27 10:47:00;;;;;;;4.13;1.42;;;16.20;99.90;;;;;;4878937;29;20052;-70
2022/10/27 10:49:30;;;;;;;4.40;1.30;;;16.20;99.90;;;;;;4878841;29;20048;-70
2022/10/27 10:52:02;;;;;;;4.32;1.40;;;16.30;99.90;;;;;;4874049;29;20463;-71
2022/10/27 10:54:39;;;;;;;2.20;1.35;;;16.30;99.90;;;;;;4878132;29;20086;-70
2022/10/27 10:57:19;;;;;;;4.88;1.63;;;16.30;99.90;;;;;;4861804;29;20045;-71
2022/10/27 10:59:47;;;;;;;3.03;1.17;;;16.40;99.90;;;;;;4877627;29;20379;-70
2022/10/27 11:02:33;;;;;;;5.38;1.67;;;16.40;99.90;;;;;;4878098;29;20057;-71
2022/10/27 11:05:21;;;;;;;2.63;1.40;;;16.50;99.90;;;;;;4875919;29;20108;-70
2022/10/27 11:07:49;;;;;;;3.85;1.30;;;16.50;99.90;;;;;;4861554;29;20064;-71
2022/10/27 11:10:38;;;;;;;3.72;1.50;;;16.50;99.90;;;;;;4875734;29;20398;-71
2022/10/27 11:13:11;;;;;;;3.25;1.25;;;16.50;99.90;;;;;;4877156;29;20053;-70
2022/10/27 11:15:52;;;;;;;2.85;1.20;;;16.60;99.90;;;;;;4876365;29;20060;-71
2022/10/27 11:18:20;;;;;;;5.03;1.25;;;16.60;99.90;;;;;;4876677;29;20124;-71
2022/10/27 11:20:52;;;;;;;3.63;1.20;;;16.60;99.90;;;;;;4878134;29;20080;-70
2022/10/27 11:23:32;;;;;;;2.33;1.17;;;16.60;99.90;;;;;;4876896;29;20041;-71
2022/10/27 11:26:01;;;;;;;1.85;1.00;;;16.60;99.90;;;;;;4875413;29;20520;-71
2022/10/27 11:28:53;;;;;;;3.35;0.90;;;16.60;99.90;;;;;;4879021;29;20120;-71
2022/10/27 11:31:22;;;;;;;3.45;1.10;;;16.70;99.90;;;;;;4877129;29;20045;-70
2022/10/27 11:33:57;;;;;;;3.22;1.00;;;16.70;99.90;;;;;;4878004;29;20135;-70
2022/10/27 11:36:28;;;;;;;4.50;1.10;;;16.70;99.90;;;;;;4854486;29;20553;-70
2022/10/27 11:39:03;;;;;;;2.45;0.73;;;16.70;99.90;;;;;;4877933;29;20504;-71
2022/10/27 11:41:31;;;;;;;2.15;0.80;;;16.80;99.90;;;;;;4877999;29;20041;-70
2022/10/27 11:44:23;;;;;;;4.18;0.80;;;16.80;99.90;;;;;;4882998;29;20059;-70
2022/10/27 11:47:11;;;;;;;1.35;0.70;;;16.90;99.90;;;;;;4880554;29;20120;-70
2022/10/27 11:50:02;;;;;;;3.65;1.17;;;16.90;99.90;;;;;;4859479;29;20516;-70
2022/10/27 11:52:50;;;;;;;1.98;0.77;;;17.00;99.90;;;;;;4881168;29;20048;-71
2022/10/27 11:55:19;;;;;;;2.70;0.93;;;17.00;99.90;;;;;;4879628;29;20049;-70
2022/10/27 11:58:04;;;;;;;1.95;0.75;;;17.00;99.90;;;;;;4880806;29;20490;-71
2022/10/27 12:00:38;;;;;;;2.78;0.80;;;17.00;99.90;;;;;;4880599;29;20083;-72
2022/10/27 12:03:28;;;;;;;2.33;0.90;;;17.00;99.90;;;;;;4881004;29;20060;-70
2022/10/27 12:06:00;;;;;;;1.40;0.80;;;17.00;99.90;;;;;;4880284;29;20080;-71
2022/10/27 12:08:52;;;;;;;1.90;0.88;;;17.00;99.90;;;;;;4881773;29;20052;-71
2022/10/27 12:11:23;;;;;;;2.58;0.80;;;17.00;99.90;;;;;;4879797;29;20049;-70
2022/10/27 12:14:03;;;;;;;2.75;0.90;;;17.00;99.90;;;;;;4880234;29;20067;-72
2022/10/27 12:16:35;;;;;;;2.63;0.90;;;17.00;99.90;;;;;;4880765;29;20049;-71
2022/10/27 12:19:09;;;;;;;4.80;1.05;;;17.10;99.90;;;;;;4886623;29;20041;-70
2022/10/27 12:21:45;;;;;;;5.18;0.90;;;17.10;99.90;;;;;;4880757;29;20132;-71
2022/10/27 12:24:29;;;;;;;3.17;0.88;;;17.10;99.90;;;;;;4881827;29;20060;-72
2022/10/27 12:26:59;;;;;;;7.25;1.50;;;17.00;99.90;;;;;;4879910;29;20049;-71
2022/10/27 12:29:32;;;;;;;3.85;0.90;;;17.00;99.90;;;;;;4880647;29;20067;-70
2022/10/27 12:32:23;;;;;;;3.47;0.80;;;17.00;99.90;;;;;;4879428;29;20108;-70
2022/10/27 12:34:56;;;;;;;6.78;1.10;;;17.10;99.90;;;;;;4879494;29;20056;-71
2022/10/27 12:37:34;;;;;;;5.85;0.90;;;17.10;99.90;;;;;;4886182;29;20104;-70
2022/10/27 12:40:20;;;;;;;2.55;0.82;;;17.20;99.90;;;;;;4878612;29;20085;-70
2022/10/27 12:42:52;;;;;;;3.50;0.80;;;17.30;99.90;;;;;;4879982;29;20104;-71
2022/10/27 12:45:50;;;;;;;2.85;0.85;;;17.30;99.90;;;;;;4885038;29;20038;-71
2022/10/27 12:48:28;;;;;;;1.00;0.65;;;17.30;99.90;;;;;;4862442;29;20136;-71
2022/10/27 12:51:25;;;;;;;2.90;0.90;;;17.30;99.90;;;;;;4876270;29;20089;-71
2022/10/27 12:54:16;;;;;;;1.85;0.80;;;17.20;99.90;;;;;;4861187;29;20061;-70
2022/10/27 12:56:55;;;;;;;3.72;0.77;;;17.20;99.90;;;;;;4877294;29;20089;-70
2022/10/27 13:00:16;;;;;;;2.63;0.75;;;17.20;99.90;;;;;;4886054;29;20142;-69
2022/10/27 13:03:17;;;;;;;2.50;0.80;;;17.20;99.90;;;;;;4851141;29;20053;-70